Time;durP1;ratioP1;P1;durP2;ratioP2;P2;SDS_P1;SDS_P2;PMS_P1;PMS_P2;Temp;Humidity;BMP_temperature;BMP_pressure;BME280_temperature;BME280_humidity;BME280_pressure;Samples;Min_cycle;Max_cycle;Signal;HPM_P1;HPM_P2
2022/01/05 00:01:41;;;;;;;98.30;82.75;;;20.30;96.10;;;;;;4172227;28;20045;-65
2022/01/05 00:03:46;;;;;;;96.55;71.20;;;20.30;96.00;;;;;;4171483;28;20524;-65
2022/01/05 00:05:50;;;;;;;77.85;58.55;;;20.40;96.00;;;;;;4172120;28;20049;-65
2022/01/05 00:07:55;;;;;;;68.03;48.60;;;20.40;96.00;;;;;;4180932;28;20053;-65
2022/01/05 00:09:59;;;;;;;63.35;47.33;;;20.40;96.30;;;;;;4180653;28;20059;-64
2022/01/05 00:12:05;;;;;;;61.50;42.60;;;20.40;96.00;;;;;;4180893;28;20477;-64
2022/01/05 00:14:09;;;;;;;61.20;42.50;;;20.30;96.20;;;;;;4180745;28;20111;-66
2022/01/05 00:16:13;;;;;;;55.35;40.05;;;20.20;96.60;;;;;;4178987;28;20041;-65
2022/01/05 00:18:18;;;;;;;58.45;41.22;;;20.10;96.80;;;;;;4180965;28;20041;-65
2022/01/05 00:20:23;;;;;;;59.53;41.78;;;20.10;96.90;;;;;;4168010;28;20041;-64
2022/01/05 00:22:28;;;;;;;59.97;41.60;;;20.10;97.00;;;;;;4165209;28;20523;-64
2022/01/05 00:24:33;;;;;;;70.13;48.03;;;20.10;97.00;;;;;;4176102;28;20049;-65
2022/01/05 00:26:38;;;;;;;84.45;57.17;;;20.10;97.10;;;;;;4172256;28;20041;-66
2022/01/05 00:28:43;;;;;;;84.00;57.40;;;19.90;97.70;;;;;;4172476;28;20099;-66
2022/01/05 00:30:47;;;;;;;72.07;48.75;;;20.00;97.60;;;;;;4174955;28;20045;-65
2022/01/05 00:32:52;;;;;;;75.80;50.83;;;20.10;97.60;;;;;;4170191;28;20044;-65
2022/01/05 00:34:56;;;;;;;68.72;45.40;;;20.00;97.90;;;;;;4170481;28;20081;-66
2022/01/05 00:37:00;;;;;;;55.65;39.83;;;20.10;97.70;;;;;;4170896;28;20042;-66
2022/01/05 00:39:05;;;;;;;54.80;37.15;;;20.10;97.80;;;;;;4172676;28;20052;-65
2022/01/05 00:41:10;;;;;;;55.47;38.20;;;20.00;98.00;;;;;;4173553;28;20049;-65
2022/01/05 00:43:14;;;;;;;56.90;37.72;;;20.10;97.90;;;;;;4173251;28;20056;-66
2022/01/05 00:45:18;;;;;;;54.72;37.15;;;20.20;97.70;;;;;;4170008;28;20045;-65
2022/01/05 00:47:22;;;;;;;54.58;35.90;;;20.30;97.60;;;;;;4175377;28;20045;-66
2022/01/05 00:49:27;;;;;;;51.08;35.63;;;20.40;97.40;;;;;;4173551;28;20052;-65
2022/01/05 00:51:32;;;;;;;52.72;37.00;;;20.30;97.60;;;;;;4173272;28;20073;-65
2022/01/05 00:53:36;;;;;;;59.13;39.80;;;20.20;98.00;;;;;;4170284;28;20055;-65
2022/01/05 00:55:41;;;;;;;57.45;35.92;;;20.30;98.00;;;;;;4172053;28;20096;-64
2022/01/05 00:57:46;;;;;;;47.80;33.90;;;20.30;98.00;;;;;;4175883;28;20051;-65
2022/01/05 00:59:51;;;;;;;54.15;35.05;;;20.30;98.10;;;;;;4170738;28;20037;-65
2022/01/05 01:01:55;;;;;;;57.20;34.45;;;20.40;98.10;;;;;;4171208;28;20056;-65
2022/01/05 01:04:01;;;;;;;53.08;36.13;;;20.40;98.10;;;;;;4170811;28;20504;-66
2022/01/05 01:06:05;;;;;;;53.47;36.40;;;20.60;97.90;;;;;;4170791;28;20136;-64
2022/01/05 01:08:10;;;;;;;49.05;34.85;;;20.60;98.00;;;;;;4171381;28;20206;-64
2022/01/05 01:10:14;;;;;;;48.38;33.60;;;20.50;98.30;;;;;;4169974;28;20059;-64
2022/01/05 01:12:19;;;;;;;52.22;30.98;;;20.50;98.30;;;;;;4171009;28;20048;-65
2022/01/05 01:14:24;;;;;;;46.05;30.25;;;20.50;98.40;;;;;;4171134;28;20499;-65
2022/01/05 01:16:28;;;;;;;46.00;30.35;;;20.70;98.50;;;;;;4169228;28;20075;-66
2022/01/05 01:18:35;;;;;;;49.72;30.48;;;20.70;98.30;;;;;;4170402;28;20048;-65
2022/01/05 01:20:39;;;;;;;42.33;28.60;;;20.90;98.00;;;;;;4167663;28;20450;-65
2022/01/05 01:22:43;;;;;;;40.15;29.38;;;21.00;97.90;;;;;;4171842;28;20103;-65
2022/01/05 01:24:48;;;;;;;42.88;30.45;;;20.90;98.10;;;;;;4178698;28;20043;-65
2022/01/05 01:26:52;;;;;;;44.97;30.25;;;21.00;98.10;;;;;;4178148;28;20572;-65
2022/01/05 01:28:58;;;;;;;38.85;26.05;;;21.10;98.10;;;;;;4178265;28;20102;-65
2022/01/05 01:31:02;;;;;;;48.42;29.85;;;21.10;98.00;;;;;;4175064;28;20098;-65
2022/01/05 01:33:06;;;;;;;47.75;26.95;;;21.20;98.10;;;;;;4177585;28;20049;-64
2022/01/05 01:35:11;;;;;;;40.15;25.60;;;21.30;97.90;;;;;;4174315;28;20045;-66
2022/01/05 01:37:16;;;;;;;33.45;20.40;;;21.50;97.70;;;;;;4178368;28;20156;-65
2022/01/05 01:39:20;;;;;;;29.73;19.92;;;21.50;97.60;;;;;;4178367;28;20127;-66
2022/01/05 01:41:25;;;;;;;29.27;19.33;;;21.50;97.40;;;;;;4176670;28;20071;-66
2022/01/05 01:43:30;;;;;;;33.50;19.13;;;21.60;97.40;;;;;;4176024;28;20307;-66
2022/01/05 01:45:34;;;;;;;23.77;16.38;;;21.60;97.30;;;;;;4178256;28;20043;-66
2022/01/05 01:47:40;;;;;;;22.70;15.38;;;21.70;97.00;;;;;;4176810;28;20114;-65
2022/01/05 01:49:44;;;;;;;22.85;15.52;;;21.70;97.10;;;;;;4177438;28;20049;-66
2022/01/05 01:51:49;;;;;;;24.17;14.88;;;21.80;97.20;;;;;;4175687;28;20114;-66
2022/01/05 01:53:53;;;;;;;23.85;15.68;;;21.80;96.80;;;;;;4176820;28;20041;-66
2022/01/05 01:55:58;;;;;;;23.05;15.15;;;21.90;96.90;;;;;;4175538;28;20043;-66
2022/01/05 01:58:03;;;;;;;23.83;16.33;;;22.00;96.70;;;;;;4177573;28;20415;-66
2022/01/05 02:00:08;;;;;;;26.52;16.33;;;22.00;96.60;;;;;;4177799;28;20076;-65
2022/01/05 02:02:17;;;;;;;20.17;14.43;;;22.10;96.50;;;;;;4174941;28;20404;-65
2022/01/05 02:04:22;;;;;;;22.45;14.30;;;22.10;96.30;;;;;;4177325;28;20114;-65
2022/01/05 02:06:26;;;;;;;25.30;15.48;;;22.20;95.80;;;;;;4177414;28;20503;-66
2022/01/05 02:08:31;;;;;;;21.50;14.02;;;22.20;96.00;;;;;;4177362;28;20040;-66
2022/01/05 02:10:36;;;;;;;24.25;15.85;;;22.30;95.80;;;;;;4175254;28;20049;-66
2022/01/05 02:12:41;;;;;;;15.38;10.90;;;22.30;95.80;;;;;;4177001;28;20518;-66
2022/01/05 02:14:46;;;;;;;18.40;12.13;;;22.40;95.30;;;;;;4177326;28;20102;-65
2022/01/05 02:16:50;;;;;;;20.38;12.57;;;22.40;95.60;;;;;;4175159;28;20052;-65
2022/01/05 02:18:58;;;;;;;21.55;14.80;;;22.40;95.50;;;;;;4175421;28;20047;-66
2022/01/05 02:21:07;;;;;;;25.50;13.55;;;22.40;95.60;;;;;;4177288;28;20039;-66
2022/01/05 02:23:11;;;;;;;24.60;14.75;;;22.40;95.70;;;;;;4177296;28;20043;-66
2022/01/05 02:25:16;;;;;;;20.73;13.18;;;22.50;95.60;;;;;;4177188;28;20049;-65
2022/01/05 02:27:20;;;;;;;23.48;12.80;;;22.60;95.40;;;;;;4176079;28;20045;-66
2022/01/05 02:29:25;;;;;;;18.08;11.60;;;22.60;95.20;;;;;;4176869;28;20048;-66
2022/01/05 02:31:29;;;;;;;19.65;12.57;;;22.70;95.30;;;;;;4176186;28;20463;-64
2022/01/05 02:33:34;;;;;;;18.85;11.48;;;22.70;95.20;;;;;;4176977;28;20573;-65
2022/01/05 02:35:38;;;;;;;13.23;9.65;;;22.80;95.10;;;;;;4174802;28;20131;-65
2022/01/05 02:37:50;;;;;;;17.52;9.85;;;22.90;94.90;;;;;;4177708;28;20049;-64
2022/01/05 02:39:54;;;;;;;14.70;9.23;;;22.90;94.80;;;;;;4177738;28;20552;-64
2022/01/05 02:41:58;;;;;;;12.80;8.88;;;23.00;94.60;;;;;;4177651;28;20122;-64
2022/01/05 02:44:03;;;;;;;12.93;8.50;;;23.00;94.50;;;;;;4173925;28;20076;-64
2022/01/05 02:46:19;;;;;;;11.30;7.30;;;23.00;94.30;;;;;;4177538;28;20632;-64
2022/01/05 02:48:23;;;;;;;12.48;6.90;;;23.10;93.80;;;;;;4175630;28;20072;-64
2022/01/05 02:50:28;;;;;;;12.23;7.50;;;23.20;93.60;;;;;;4177210;28;20077;-65
2022/01/05 02:52:32;;;;;;;11.35;7.70;;;23.20;93.70;;;;;;4177447;28;20045;-65
2022/01/05 02:54:36;;;;;;;13.50;8.60;;;23.20;93.70;;;;;;4176164;28;20132;-65
2022/01/05 02:56:41;;;;;;;14.13;7.25;;;23.20;93.80;;;;;;4175105;28;20044;-65
2022/01/05 02:58:45;;;;;;;13.68;7.38;;;23.30;93.80;;;;;;4177739;28;20039;-65
2022/01/05 03:00:50;;;;;;;10.57;6.75;;;23.40;93.50;;;;;;4177596;28;20052;-65
2022/01/05 03:02:55;;;;;;;13.10;7.05;;;23.50;93.20;;;;;;4171576;28;20075;-65
2022/01/05 03:05:00;;;;;;;10.15;7.18;;;23.50;93.10;;;;;;4174390;28;20053;-65
2022/01/05 03:07:05;;;;;;;9.88;6.20;;;23.50;93.10;;;;;;4174333;28;20052;-65
2022/01/05 03:09:10;;;;;;;12.88;6.95;;;23.50;93.10;;;;;;4171792;28;20448;-64
2022/01/05 03:11:14;;;;;;;11.50;7.15;;;23.60;93.30;;;;;;4172856;28;20053;-64
2022/01/05 03:13:23;;;;;;;12.65;7.93;;;23.80;92.60;;;;;;4172312;28;20068;-64
2022/01/05 03:15:28;;;;;;;12.18;8.18;;;23.70;92.70;;;;;;4176314;28;20072;-64
2022/01/05 03:17:32;;;;;;;9.50;7.25;;;23.80;92.80;;;;;;4174671;28;20045;-65
2022/01/05 03:19:36;;;;;;;11.10;7.10;;;23.80;92.50;;;;;;4177225;28;20029;-64
2022/01/05 03:21:42;;;;;;;9.27;6.47;;;23.80;92.10;;;;;;4175314;28;20060;-65
2022/01/05 03:23:47;;;;;;;11.45;6.68;;;23.90;92.20;;;;;;4177133;28;20401;-65
2022/01/05 03:25:53;;;;;;;14.00;7.60;;;24.00;92.30;;;;;;4176016;28;20412;-65
2022/01/05 03:27:58;;;;;;;13.70;7.22;;;24.10;91.90;;;;;;4178800;28;20162;-65
2022/01/05 03:30:03;;;;;;;12.73;8.20;;;24.10;92.20;;;;;;4177957;28;20052;-66
2022/01/05 03:32:07;;;;;;;14.23;7.50;;;24.20;91.80;;;;;;4180232;28;20041;-64
2022/01/05 03:34:18;;;;;;;11.60;7.05;;;24.20;91.70;;;;;;4179335;28;20084;-64
2022/01/05 03:36:23;;;;;;;11.43;7.68;;;24.30;91.70;;;;;;4179594;28;20040;-65
2022/01/05 03:38:29;;;;;;;9.57;7.38;;;24.40;91.20;;;;;;4180420;28;20045;-65
2022/01/05 03:40:34;;;;;;;12.93;7.45;;;24.40;91.10;;;;;;4179838;28;20061;-64
2022/01/05 03:42:39;;;;;;;15.27;8.65;;;24.40;90.70;;;;;;4180489;28;20049;-65
2022/01/05 03:44:43;;;;;;;14.35;8.80;;;24.40;90.70;;;;;;4177610;28;20037;-64
2022/01/05 03:46:48;;;;;;;12.63;7.65;;;24.50;90.80;;;;;;4179218;28;20573;-65
2022/01/05 03:48:53;;;;;;;11.45;7.93;;;24.50;90.60;;;;;;4180278;28;20045;-65
2022/01/05 03:50:57;;;;;;;17.98;11.20;;;24.60;90.20;;;;;;4179900;28;20045;-65
2022/01/05 03:53:03;;;;;;;22.08;10.90;;;24.70;89.60;;;;;;4177398;28;20049;-65
2022/01/05 03:55:08;;;;;;;20.13;12.63;;;24.90;90.00;;;;;;4179845;28;20090;-66
2022/01/05 03:57:13;;;;;;;20.08;11.73;;;24.90;90.00;;;;;;4178982;28;20407;-65
2022/01/05 03:59:18;;;;;;;16.52;12.25;;;24.80;90.10;;;;;;4179627;28;20041;-66
2022/01/05 04:01:22;;;;;;;18.35;12.80;;;24.90;89.90;;;;;;4179453;28;20043;-64
2022/01/05 04:03:26;;;;;;;16.48;11.00;;;24.90;89.80;;;;;;4179950;28;20081;-65
2022/01/05 04:05:31;;;;;;;15.15;10.57;;;24.80;88.80;;;;;;4179065;28;20045;-66
2022/01/05 04:07:36;;;;;;;18.27;11.13;;;25.00;89.10;;;;;;4179026;28;20037;-66
2022/01/05 04:09:40;;;;;;;16.55;10.75;;;25.10;88.50;;;;;;4176690;28;20053;-65
2022/01/05 04:11:45;;;;;;;19.80;10.68;;;25.10;88.10;;;;;;4179593;28;20079;-64
2022/01/05 04:13:49;;;;;;;23.98;11.30;;;25.20;88.10;;;;;;4179435;28;20047;-65
2022/01/05 04:15:53;;;;;;;16.38;11.02;;;25.10;88.40;;;;;;4179506;28;20041;-66
2022/01/05 04:17:58;;;;;;;16.20;10.48;;;25.30;88.60;;;;;;4173790;28;20056;-65
2022/01/05 04:20:04;;;;;;;16.35;10.38;;;25.30;88.80;;;;;;4177007;28;20128;-67
2022/01/05 04:22:08;;;;;;;15.65;9.40;;;25.30;89.60;;;;;;4177167;28;20036;-65
2022/01/05 04:24:13;;;;;;;14.38;8.43;;;25.30;89.30;;;;;;4176785;28;20044;-66
2022/01/05 04:26:18;;;;;;;12.23;8.35;;;25.30;88.90;;;;;;4174261;28;20083;-64
2022/01/05 04:28:22;;;;;;;19.25;12.57;;;25.40;88.60;;;;;;4175068;28;20049;-66
2022/01/05 04:30:27;;;;;;;18.08;11.15;;;25.50;87.60;;;;;;4176434;28;20049;-67
2022/01/05 04:32:31;;;;;;;14.68;9.00;;;25.60;87.30;;;;;;4176837;28;20056;-65
2022/01/05 04:34:56;;;;;;;12.57;7.00;;;25.60;86.70;;;;;;4173725;28;20059;-65
2022/01/05 04:37:22;;;;;;;13.52;7.88;;;25.60;85.30;;;;;;4174723;28;20771;-68
2022/01/05 04:39:26;;;;;;;10.15;7.20;;;25.80;85.30;;;;;;4173189;28;20136;-66
2022/01/05 04:41:31;;;;;;;10.73;7.75;;;25.80;84.60;;;;;;4175424;28;20041;-65
2022/01/05 04:43:35;;;;;;;11.45;7.63;;;25.90;83.90;;;;;;4176264;28;20049;-65
2022/01/05 04:45:39;;;;;;;10.63;7.35;;;25.90;84.40;;;;;;4174861;28;20060;-64
2022/01/05 04:47:44;;;;;;;10.95;7.18;;;25.90;83.30;;;;;;4175341;28;20393;-66
2022/01/05 04:49:49;;;;;;;11.13;7.32;;;26.00;84.30;;;;;;4171621;28;20574;-67
2022/01/05 04:51:53;;;;;;;11.80;8.07;;;26.00;84.10;;;;;;4170018;28;20495;-66
2022/01/05 04:53:57;;;;;;;14.65;8.05;;;26.00;83.70;;;;;;4168468;28;20053;-66
2022/01/05 04:56:02;;;;;;;16.70;8.38;;;26.10;83.10;;;;;;4170849;28;20057;-66
2022/01/05 04:58:07;;;;;;;11.10;7.78;;;26.10;83.40;;;;;;4170149;28;20045;-66
2022/01/05 05:00:12;;;;;;;17.60;7.82;;;26.20;82.40;;;;;;4170286;28;20041;-67
2022/01/05 05:02:17;;;;;;;13.45;7.10;;;26.20;82.80;;;;;;4173235;28;20043;-67
2022/01/05 05:04:26;;;;;;;13.75;7.88;;;26.30;82.60;;;;;;4175799;28;20045;-66
2022/01/05 05:06:31;;;;;;;11.95;8.00;;;26.20;82.80;;;;;;4174154;28;20602;-67
2022/01/05 05:08:36;;;;;;;11.70;7.68;;;26.30;82.20;;;;;;4176749;28;20045;-67
2022/01/05 05:10:40;;;;;;;11.20;6.50;;;26.30;81.80;;;;;;4174626;28;20057;-66
2022/01/05 05:12:44;;;;;;;15.32;6.65;;;26.50;80.30;;;;;;4162006;28;20419;-64
2022/01/05 05:14:50;;;;;;;9.35;6.93;;;26.50;80.10;;;;;;4169422;28;20056;-65
2022/01/05 05:16:54;;;;;;;8.35;6.57;;;26.50;79.70;;;;;;4166096;28;20458;-67
2022/01/05 05:18:59;;;;;;;15.70;7.20;;;26.60;80.60;;;;;;4163446;28;20065;-67
2022/01/05 05:21:04;;;;;;;9.95;7.13;;;26.60;80.30;;;;;;4174496;28;20049;-67
2022/01/05 05:23:08;;;;;;;8.13;6.13;;;26.50;79.30;;;;;;4170939;28;20835;-66
2022/01/05 05:25:13;;;;;;;8.25;6.40;;;26.50;79.60;;;;;;4172914;28;20415;-65
2022/01/05 05:27:17;;;;;;;9.43;6.00;;;26.50;78.70;;;;;;4175083;28;20053;-66
2022/01/05 05:29:22;;;;;;;9.13;6.10;;;26.50;78.80;;;;;;4174770;28;20049;-67
2022/01/05 05:31:26;;;;;;;10.32;5.90;;;26.60;78.50;;;;;;4175294;28;20049;-67
2022/01/05 05:33:31;;;;;;;10.40;5.93;;;26.60;78.20;;;;;;4161976;28;20041;-66
2022/01/05 05:35:39;;;;;;;8.70;5.43;;;26.60;79.20;;;;;;4170665;28;20447;-66
2022/01/05 05:37:44;;;;;;;10.82;6.53;;;26.70;80.20;;;;;;4174246;28;20135;-67
2022/01/05 05:39:50;;;;;;;8.43;6.30;;;26.70;79.20;;;;;;4164593;28;20048;-67
2022/01/05 05:41:55;;;;;;;11.57;6.85;;;26.90;78.60;;;;;;4173105;28;20041;-65
2022/01/05 05:43:59;;;;;;;11.73;7.50;;;26.90;77.50;;;;;;4173605;28;20559;-66
2022/01/05 05:46:04;;;;;;;11.10;6.47;;;27.20;76.50;;;;;;4174882;28;20111;-66
2022/01/05 05:48:08;;;;;;;10.55;6.88;;;27.30;76.10;;;;;;4174632;28;20064;-66
2022/01/05 05:50:13;;;;;;;14.43;7.03;;;27.20;76.50;;;;;;4171666;28;20065;-64
2022/01/05 05:52:18;;;;;;;10.60;6.95;;;27.20;76.30;;;;;;4173731;28;20538;-66
2022/01/05 05:54:22;;;;;;;10.48;6.70;;;27.30;74.90;;;;;;4173959;28;20041;-65
2022/01/05 05:56:27;;;;;;;9.18;5.65;;;27.40;75.30;;;;;;4170248;28;20508;-66
2022/01/05 05:58:32;;;;;;;8.93;6.55;;;27.60;74.70;;;;;;4173977;28;20060;-66
2022/01/05 06:00:36;;;;;;;12.35;7.60;;;27.50;74.00;;;;;;4172006;28;20052;-67
2022/01/05 06:02:41;;;;;;;12.70;7.20;;;27.50;74.80;;;;;;4173620;28;20059;-66
2022/01/05 06:04:46;;;;;;;10.70;7.40;;;27.40;74.80;;;;;;4171293;28;20449;-66
2022/01/05 06:06:50;;;;;;;8.65;6.50;;;27.30;75.20;;;;;;4166160;28;20349;-67
2022/01/05 06:08:55;;;;;;;15.20;6.80;;;27.70;74.90;;;;;;4167654;28;20077;-65
2022/01/05 06:11:00;;;;;;;9.25;5.75;;;27.70;74.90;;;;;;4169894;28;20063;-67
2022/01/05 06:13:04;;;;;;;7.90;5.22;;;27.70;74.70;;;;;;4167793;28;20049;-64
2022/01/05 06:15:10;;;;;;;12.30;8.68;;;27.60;74.20;;;;;;4167752;28;20467;-63
2022/01/05 06:17:15;;;;;;;10.98;7.68;;;27.70;74.20;;;;;;4166893;28;20102;-66
2022/01/05 06:19:20;;;;;;;14.18;7.20;;;27.60;74.00;;;;;;4167092;28;20148;-64
2022/01/05 06:21:25;;;;;;;8.80;6.93;;;27.60;73.90;;;;;;4165848;28;20374;-66
2022/01/05 06:23:29;;;;;;;8.63;7.18;;;27.60;74.70;;;;;;4182112;28;20126;-66
2022/01/05 06:25:35;;;;;;;10.48;7.25;;;27.60;74.80;;;;;;4170072;28;20083;-65
2022/01/05 06:27:39;;;;;;;11.25;6.60;;;27.80;74.00;;;;;;4167576;28;20052;-66
2022/01/05 06:29:44;;;;;;;10.05;6.63;;;27.70;73.80;;;;;;4166479;28;20068;-66
2022/01/05 06:31:49;;;;;;;10.05;6.38;;;27.60;73.30;;;;;;4166779;28;20084;-67
2022/01/05 06:33:53;;;;;;;13.63;7.43;;;27.70;72.50;;;;;;4175047;28;20482;-66
2022/01/05 06:35:58;;;;;;;11.10;7.07;;;27.90;71.80;;;;;;4173336;28;20063;-66
2022/01/05 06:38:03;;;;;;;11.52;6.85;;;27.70;72.70;;;;;;4175404;28;20041;-67
2022/01/05 06:40:09;;;;;;;9.82;6.90;;;27.70;73.10;;;;;;4175037;28;20052;-66
2022/01/05 06:42:14;;;;;;;10.98;6.57;;;27.80;73.90;;;;;;4175294;28;20455;-66
2022/01/05 06:44:20;;;;;;;9.10;6.65;;;27.90;72.40;;;;;;4175213;28;20044;-66
2022/01/05 06:46:25;;;;;;;12.85;6.72;;;28.10;72.70;;;;;;4175177;28;20095;-66
2022/01/05 06:48:32;;;;;;;10.02;7.25;;;28.30;72.10;;;;;;4175333;28;20490;-66
2022/01/05 06:50:37;;;;;;;11.85;6.93;;;28.30;71.90;;;;;;4172154;28;20052;-66
2022/01/05 06:52:41;;;;;;;8.63;7.22;;;28.20;71.80;;;;;;4175194;28;20487;-66
2022/01/05 06:54:45;;;;;;;11.30;7.35;;;28.20;71.20;;;;;;4175649;28;20049;-66
2022/01/05 06:56:50;;;;;;;9.80;7.38;;;28.20;71.10;;;;;;4175995;28;20091;-66
2022/01/05 06:58:54;;;;;;;11.15;7.35;;;28.10;71.70;;;;;;4176528;28;20049;-66
2022/01/05 07:00:58;;;;;;;14.32;7.38;;;28.30;71.30;;;;;;4176517;28;20047;-65
2022/01/05 07:03:04;;;;;;;12.38;7.65;;;28.30;71.00;;;;;;4176839;28;20094;-65
2022/01/05 07:05:09;;;;;;;9.75;7.30;;;28.20;71.00;;;;;;4178538;28;20041;-66
2022/01/05 07:07:14;;;;;;;9.30;7.05;;;28.10;71.40;;;;;;4179977;28;20333;-66
2022/01/05 07:09:18;;;;;;;10.57;7.88;;;28.00;71.60;;;;;;4178795;28;20057;-65
2022/01/05 07:11:23;;;;;;;9.32;7.20;;;28.30;71.00;;;;;;4180526;28;20510;-65
2022/01/05 07:13:28;;;;;;;12.60;6.80;;;28.20;71.40;;;;;;4179541;28;20135;-66
2022/01/05 07:15:32;;;;;;;14.73;7.53;;;28.30;70.90;;;;;;4180260;28;20045;-65
2022/01/05 07:17:37;;;;;;;11.23;6.93;;;28.30;69.50;;;;;;4178520;28;20040;-65
2022/01/05 07:19:42;;;;;;;8.57;6.55;;;28.30;70.10;;;;;;4176192;28;20045;-65
2022/01/05 07:21:47;;;;;;;9.82;7.05;;;28.20;70.80;;;;;;4172543;28;20495;-65
2022/01/05 07:23:52;;;;;;;9.35;6.82;;;28.10;71.20;;;;;;4173992;28;20130;-65
2022/01/05 07:25:56;;;;;;;8.43;6.53;;;28.20;70.50;;;;;;4175179;28;20049;-66
2022/01/05 07:28:01;;;;;;;11.63;7.22;;;28.40;70.00;;;;;;4172824;28;20052;-66
2022/01/05 07:30:06;;;;;;;12.32;7.32;;;28.40;70.60;;;;;;4173574;28;20041;-66
2022/01/05 07:32:11;;;;;;;10.82;7.18;;;28.30;70.30;;;;;;4173066;28;20073;-66
2022/01/05 07:34:15;;;;;;;10.60;7.40;;;28.40;70.80;;;;;;4172387;28;20037;-65
2022/01/05 07:36:20;;;;;;;11.15;7.35;;;28.30;70.90;;;;;;4174680;28;20072;-65
2022/01/05 07:38:26;;;;;;;14.68;7.32;;;28.20;70.90;;;;;;4174804;28;20049;-66
2022/01/05 07:40:31;;;;;;;14.13;7.40;;;28.20;70.10;;;;;;4180029;28;20407;-67
2022/01/05 07:42:36;;;;;;;12.60;7.28;;;28.40;70.00;;;;;;4180739;28;20075;-67
2022/01/05 07:44:40;;;;;;;11.43;7.25;;;28.40;70.10;;;;;;4180462;28;20135;-67
2022/01/05 07:46:45;;;;;;;9.25;7.22;;;28.40;69.00;;;;;;4180297;28;20136;-66
2022/01/05 07:48:49;;;;;;;10.85;6.85;;;28.30;69.90;;;;;;4180405;28;20118;-67
2022/01/05 07:50:54;;;;;;;9.85;6.50;;;28.20;70.50;;;;;;4179650;28;20041;-66
2022/01/05 07:53:04;;;;;;;9.70;7.32;;;28.30;70.30;;;;;;4180082;28;20056;-66
2022/01/05 07:55:09;;;;;;;11.55;7.10;;;28.30;70.20;;;;;;4175885;28;20037;-65
2022/01/05 07:57:14;;;;;;;13.65;7.60;;;28.40;69.10;;;;;;4176194;28;20455;-65
2022/01/05 07:59:18;;;;;;;9.73;7.50;;;28.40;68.90;;;;;;4174376;28;20170;-66
2022/01/05 08:01:23;;;;;;;10.88;7.50;;;28.60;68.50;;;;;;4174805;28;20131;-66
2022/01/05 08:03:30;;;;;;;11.30;7.63;;;28.60;68.10;;;;;;4174594;28;20353;-65
2022/01/05 08:05:54;;;;;;;9.88;7.20;;;28.60;67.90;;;;;;4174012;28;20128;-65
2022/01/05 08:07:59;;;;;;;10.48;6.72;;;28.50;66.50;;;;;;4178740;28;20053;-66
2022/01/05 08:10:07;;;;;;;9.20;6.82;;;28.40;67.20;;;;;;4177652;28;20120;-66
2022/01/05 08:12:11;;;;;;;9.40;6.93;;;28.30;67.30;;;;;;4175142;28;20063;-65
2022/01/05 08:14:16;;;;;;;8.20;6.63;;;28.40;67.50;;;;;;4170317;28;20504;-65
2022/01/05 08:16:22;;;;;;;12.15;7.43;;;28.40;67.00;;;;;;4171935;28;20042;-66
2022/01/05 08:18:27;;;;;;;11.82;6.60;;;28.60;66.70;;;;;;4179797;28;20381;-65
2022/01/05 08:20:32;;;;;;;13.48;9.20;;;28.50;66.90;;;;;;4180400;28;20053;-66
2022/01/05 08:22:41;;;;;;;12.95;7.15;;;28.60;66.80;;;;;;4179692;28;20044;-65
2022/01/05 08:24:45;;;;;;;10.50;7.35;;;28.50;66.10;;;;;;4180821;28;20045;-66
2022/01/05 08:26:50;;;;;;;8.75;6.80;;;28.60;66.10;;;;;;4179907;28;20118;-65
2022/01/05 08:28:55;;;;;;;10.93;6.53;;;28.70;64.50;;;;;;4180067;28;20508;-65
2022/01/05 08:30:59;;;;;;;10.18;6.72;;;28.70;65.10;;;;;;4171884;28;20149;-65
2022/01/05 08:33:04;;;;;;;8.93;5.88;;;28.60;66.10;;;;;;4172809;28;20319;-66
2022/01/05 08:35:10;;;;;;;9.68;6.20;;;28.60;64.20;;;;;;4170397;28;20052;-68
2022/01/05 08:37:15;;;;;;;9.10;6.97;;;28.70;64.40;;;;;;4171680;28;20555;-65
2022/01/05 08:39:22;;;;;;;12.52;6.60;;;28.60;64.60;;;;;;4171451;28;20098;-66
2022/01/05 08:41:27;;;;;;;9.93;6.07;;;28.60;64.80;;;;;;4171563;28;20064;-66
2022/01/05 08:43:33;;;;;;;7.22;5.60;;;28.60;65.30;;;;;;4174170;28;20045;-67
2022/01/05 08:45:37;;;;;;;10.05;6.03;;;28.70;64.90;;;;;;4172758;28;20487;-67
2022/01/05 08:47:47;;;;;;;8.27;5.30;;;28.80;64.10;;;;;;4170859;28;20526;-66
2022/01/05 08:49:52;;;;;;;9.13;5.55;;;28.70;64.50;;;;;;4171703;28;20428;-66
2022/01/05 08:51:56;;;;;;;13.88;6.40;;;28.70;64.40;;;;;;4171228;28;20063;-67
2022/01/05 08:54:01;;;;;;;11.10;7.20;;;28.70;64.60;;;;;;4179101;28;20052;-66
2022/01/05 08:56:05;;;;;;;11.80;8.02;;;28.80;65.30;;;;;;4179936;28;20052;-67
2022/01/05 08:58:10;;;;;;;8.77;6.68;;;28.70;65.50;;;;;;4177503;28;20052;-67
2022/01/05 09:00:15;;;;;;;10.65;6.20;;;28.80;63.50;;;;;;4179844;28;20061;-66
2022/01/05 09:02:22;;;;;;;7.93;5.82;;;28.80;63.20;;;;;;4179755;28;20045;-66
2022/01/05 09:04:26;;;;;;;10.35;6.10;;;28.70;62.80;;;;;;4179843;28;20073;-68
2022/01/05 09:06:33;;;;;;;8.95;6.50;;;28.80;63.00;;;;;;4180166;28;20053;-66
2022/01/05 09:08:38;;;;;;;12.07;5.55;;;28.80;62.50;;;;;;4179904;28;20443;-68
2022/01/05 09:10:43;;;;;;;11.43;5.95;;;28.80;62.50;;;;;;4179729;28;20462;-68
2022/01/05 09:12:47;;;;;;;13.00;5.80;;;28.70;63.00;;;;;;4179670;28;20056;-61
2022/01/05 09:14:52;;;;;;;26.35;5.88;;;28.60;62.90;;;;;;4180163;28;20090;-65
2022/01/05 09:16:58;;;;;;;8.82;5.53;;;28.60;63.50;;;;;;4168013;28;20083;-66
2022/01/05 09:19:04;;;;;;;9.38;5.47;;;28.50;63.20;;;;;;4173043;28;20044;-66
2022/01/05 09:21:08;;;;;;;10.10;5.13;;;28.50;62.80;;;;;;4171109;28;20523;-66
2022/01/05 09:23:16;;;;;;;8.95;5.50;;;28.60;61.90;;;;;;4171268;28;20045;-66
2022/01/05 09:25:21;;;;;;;10.73;5.30;;;28.60;63.00;;;;;;4172859;28;20605;-66
2022/01/05 09:27:25;;;;;;;8.43;5.22;;;28.60;63.40;;;;;;4176016;28;20045;-66
2022/01/05 09:29:30;;;;;;;7.13;5.18;;;28.50;63.40;;;;;;4172180;28;20029;-66
2022/01/05 09:31:37;;;;;;;9.95;5.25;;;28.50;64.10;;;;;;4168248;28;20496;-66
2022/01/05 09:33:41;;;;;;;8.48;4.78;;;28.50;64.30;;;;;;4169378;28;20045;-67
2022/01/05 09:35:48;;;;;;;11.15;5.32;;;28.50;63.90;;;;;;4172763;28;20065;-66
2022/01/05 09:38:06;;;;;;;9.65;5.00;;;28.50;64.50;;;;;;4172965;28;20442;-66
2022/01/05 09:42:27;;;;;;;8.07;5.63;;;28.50;65.30;;;;;;4169882;28;20547;-66
2022/01/05 09:44:41;;;;;;;11.65;5.88;;;28.50;64.10;;;;;;4175098;28;20403;-65
2022/01/05 09:46:59;;;;;;;9.00;5.97;;;28.60;64.00;;;;;;4178105;28;20048;-66
2022/01/05 09:49:27;;;;;;;10.68;5.95;;;28.70;64.00;;;;;;4177034;28;20053;-65
2022/01/05 09:51:32;;;;;;;13.65;6.00;;;28.60;64.30;;;;;;4175727;28;20110;-66
2022/01/05 09:53:37;;;;;;;9.30;6.38;;;28.60;64.20;;;;;;4177645;28;20098;-65
2022/01/05 09:56:02;;;;;;;12.07;6.00;;;28.50;64.70;;;;;;4177142;28;20044;-65
2022/01/05 09:58:06;;;;;;;9.55;6.28;;;28.40;64.90;;;;;;4175822;28;20525;-65
2022/01/05 10:00:13;;;;;;;10.75;6.03;;;28.40;64.50;;;;;;4175820;28;20072;-65
2022/01/05 10:02:18;;;;;;;14.52;6.43;;;28.40;65.20;;;;;;4177493;28;20136;-65
2022/01/05 10:04:25;;;;;;;14.32;7.45;;;28.40;65.00;;;;;;4177193;28;20161;-65
2022/01/05 10:06:32;;;;;;;11.70;7.60;;;28.50;64.30;;;;;;4176189;28;20076;-64
2022/01/05 10:08:37;;;;;;;15.27;9.82;;;28.40;65.20;;;;;;4177595;28;20040;-65
2022/01/05 10:10:42;;;;;;;18.67;10.90;;;28.30;65.30;;;;;;4177752;28;20072;-64
2022/01/05 10:12:47;;;;;;;15.77;9.25;;;28.30;65.70;;;;;;4175607;28;20045;-65
2022/01/05 10:14:52;;;;;;;16.67;8.73;;;28.30;65.90;;;;;;4177845;28;20071;-65
2022/01/05 10:17:11;;;;;;;15.32;8.15;;;28.20;66.30;;;;;;4175211;28;20033;-65
2022/01/05 10:19:22;;;;;;;19.20;8.90;;;28.20;66.50;;;;;;4176878;28;20042;-65
2022/01/05 10:21:36;;;;;;;18.58;9.68;;;28.20;66.70;;;;;;4175150;28;20075;-65
2022/01/05 10:23:46;;;;;;;14.45;8.90;;;28.10;66.00;;;;;;4177371;28;20084;-65
2022/01/05 10:25:50;;;;;;;17.40;8.68;;;28.10;66.00;;;;;;4175632;28;20041;-65
2022/01/05 10:28:00;;;;;;;15.27;8.65;;;28.10;67.20;;;;;;4177508;28;20645;-67
2022/01/05 10:30:13;;;;;;;12.13;8.10;;;28.00;67.70;;;;;;4175371;28;20534;-65
2022/01/05 10:32:18;;;;;;;13.82;7.63;;;28.00;68.30;;;;;;4177650;28;20033;-66
2022/01/05 10:34:25;;;;;;;13.38;7.60;;;27.90;68.00;;;;;;4175138;28;20455;-66
2022/01/05 10:37:06;;;;;;;13.93;7.55;;;27.80;67.80;;;;;;4175027;28;20060;-66
2022/01/05 10:39:10;;;;;;;15.18;7.80;;;27.80;68.10;;;;;;4176910;28;20475;-66
2022/01/05 10:41:19;;;;;;;15.20;8.05;;;27.80;69.00;;;;;;4178436;28;20065;-66
2022/01/05 10:43:23;;;;;;;20.70;10.85;;;27.80;69.30;;;;;;4178742;28;20041;-66
2022/01/05 10:45:44;;;;;;;23.50;10.52;;;27.70;70.40;;;;;;4178530;28;20063;-67
2022/01/05 10:48:03;;;;;;;32.95;13.05;;;27.70;71.20;;;;;;4176739;28;20139;-66